Startpagina
METAR-TAF:

METAR-TAF

Vliegvelden :

Santa Rosa, Argentinië

breedte: 36-34S, lengte: 064-16W, hoogte: 190 m

METAR: ontbreekt

Tijdstip: 10:19 (13:19 UTC)

Verwachting

Dit bericht is 26 uur en het 19 minuten geleden gemaakt, om 11:00 UTC
Verwachting geldig van 24 om 12 UTC tot 25 om 12 UTC
Wind 10 kt uit het noorden
Zicht 10 km of meer
geen wolken onder 1500 m en geen cumulonimbus
Wijzigt naar
van 24 om 13 UTC tot 24 om 15 UTC
Wind 15 kt uit het noordnoordoosten met uitschieters tot 25 kt
Wijzigt naar
van 25 om 00 UTC tot 25 om 02 UTC
Wind 10 kt uit het noordnoordoosten

TAF: SAZR 241100Z 2412/2512 36010KT CAVOK TX37/2418Z TN24/2509Z BECMG 2413/2415 02015G25KT BECMG 2500/2502 02010KT

Waarnemingen en weersverwachtingen van meer dan 4000 vliegvelden (METAR en TAF).

De beschikbare stations zijn de gele en rode punten op de kaart.

Ga met uw muis naar het station om de naam te zien.

Klik dan om waarnemingen en weersverwachtingen te zien.

kaart wijzigen: klik op de groene knoppen met een zwart kruis om in te zoomen, op de groene knop met een streepje om uit te zoomen of op de groene pijlen voor aangrenzende kaarten.


METAR-TAF: